sensor_id;sensor_type;location;lat;lon;timestamp;temperature;humidity
20977;DHT22;10647;51.016;3.720;2023-06-10T00:02:23;25.20;70.40
20977;DHT22;10647;51.016;3.720;2023-06-10T00:04:50;25.10;70.40
20977;DHT22;10647;51.016;3.720;2023-06-10T00:07:19;25.10;70.60
20977;DHT22;10647;51.016;3.720;2023-06-10T00:09:46;25.10;70.70
20977;DHT22;10647;51.016;3.720;2023-06-10T00:12:14;25.00;70.80
20977;DHT22;10647;51.016;3.720;2023-06-10T00:14:43;25.00;70.90
20977;DHT22;10647;51.016;3.720;2023-06-10T00:17:11;25.00;71.10
20977;DHT22;10647;51.016;3.720;2023-06-10T00:19:38;24.90;71.10
20977;DHT22;10647;51.016;3.720;2023-06-10T00:22:07;24.90;71.20
20977;DHT22;10647;51.016;3.720;2023-06-10T00:24:37;24.90;71.40
20977;DHT22;10647;51.016;3.720;2023-06-10T00:27:04;24.80;71.70
20977;DHT22;10647;51.016;3.720;2023-06-10T00:29:34;24.80;71.80
20977;DHT22;10647;51.016;3.720;2023-06-10T00:32:03;24.70;72.00
20977;DHT22;10647;51.016;3.720;2023-06-10T00:34:31;24.70;72.20
20977;DHT22;10647;51.016;3.720;2023-06-10T00:36:58;24.60;72.20
20977;DHT22;10647;51.016;3.720;2023-06-10T00:39:26;24.60;72.40
20977;DHT22;10647;51.016;3.720;2023-06-10T00:41:53;24.60;72.60
20977;DHT22;10647;51.016;3.720;2023-06-10T00:44:21;24.50;72.80
20977;DHT22;10647;51.016;3.720;2023-06-10T00:46:48;24.40;73.00
20977;DHT22;10647;51.016;3.720;2023-06-10T00:49:17;24.40;73.30
20977;DHT22;10647;51.016;3.720;2023-06-10T00:51:45;24.40;73.50
20977;DHT22;10647;51.016;3.720;2023-06-10T00:54:14;24.30;73.60
20977;DHT22;10647;51.016;3.720;2023-06-10T00:56:42;24.30;73.70
20977;DHT22;10647;51.016;3.720;2023-06-10T00:59:10;24.20;73.90
20977;DHT22;10647;51.016;3.720;2023-06-10T01:01:38;24.20;73.90
20977;DHT22;10647;51.016;3.720;2023-06-10T01:04:05;24.20;73.90
20977;DHT22;10647;51.016;3.720;2023-06-10T01:09:54;24.10;74.00
20977;DHT22;10647;51.016;3.720;2023-06-10T01:13:03;24.10;74.10
20977;DHT22;10647;51.016;3.720;2023-06-10T01:15:35;24.00;74.30
20977;DHT22;10647;51.016;3.720;2023-06-10T01:18:05;23.90;74.50
20977;DHT22;10647;51.016;3.720;2023-06-10T01:20:35;23.90;74.80
20977;DHT22;10647;51.016;3.720;2023-06-10T01:23:05;23.80;74.90
20977;DHT22;10647;51.016;3.720;2023-06-10T01:25:34;23.80;75.00
20977;DHT22;10647;51.016;3.720;2023-06-10T01:28:07;23.80;75.30
20977;DHT22;10647;51.016;3.720;2023-06-10T01:30:56;23.80;75.50
20977;DHT22;10647;51.016;3.720;2023-06-10T01:33:23;23.70;75.50
20977;DHT22;10647;51.016;3.720;2023-06-10T01:35:50;23.70;75.70
20977;DHT22;10647;51.016;3.720;2023-06-10T01:38:27;23.60;75.90
20977;DHT22;10647;51.016;3.720;2023-06-10T01:40:57;23.60;76.10
20977;DHT22;10647;51.016;3.720;2023-06-10T01:43:33;23.60;76.50
20977;DHT22;10647;51.016;3.720;2023-06-10T01:46:05;23.50;76.70
20977;DHT22;10647;51.016;3.720;2023-06-10T01:48:33;23.50;76.90
20977;DHT22;10647;51.016;3.720;2023-06-10T01:51:06;23.40;77.00
20977;DHT22;10647;51.016;3.720;2023-06-10T01:53:34;23.40;77.20
20977;DHT22;10647;51.016;3.720;2023-06-10T02:02:40;23.30;77.50
20977;DHT22;10647;51.016;3.720;2023-06-10T02:05:07;23.20;78.10
20977;DHT22;10647;51.016;3.720;2023-06-10T02:07:35;23.10;78.50
20977;DHT22;10647;51.016;3.720;2023-06-10T02:10:02;23.10;78.60
20977;DHT22;10647;51.016;3.720;2023-06-10T02:12:33;23.10;78.70
20977;DHT22;10647;51.016;3.720;2023-06-10T02:15:04;23.10;78.90
20977;DHT22;10647;51.016;3.720;2023-06-10T02:17:33;23.10;79.10
20977;DHT22;10647;51.016;3.720;2023-06-10T02:20:07;23.00;78.60
20977;DHT22;10647;51.016;3.720;2023-06-10T02:22:42;23.00;79.40
20977;DHT22;10647;51.016;3.720;2023-06-10T02:25:12;23.00;79.50
20977;DHT22;10647;51.016;3.720;2023-06-10T02:27:42;22.90;79.60
20977;DHT22;10647;51.016;3.720;2023-06-10T02:30:10;22.90;79.90
20977;DHT22;10647;51.016;3.720;2023-06-10T02:33:13;22.90;80.00
20977;DHT22;10647;51.016;3.720;2023-06-10T02:35:45;22.90;80.30
20977;DHT22;10647;51.016;3.720;2023-06-10T02:38:12;22.90;80.30
20977;DHT22;10647;51.016;3.720;2023-06-10T02:40:40;22.80;80.40
20977;DHT22;10647;51.016;3.720;2023-06-10T02:43:08;22.80;80.80
20977;DHT22;10647;51.016;3.720;2023-06-10T02:45:36;22.80;81.10
20977;DHT22;10647;51.016;3.720;2023-06-10T02:48:27;22.70;81.10
20977;DHT22;10647;51.016;3.720;2023-06-10T02:50:57;22.80;81.60
20977;DHT22;10647;51.016;3.720;2023-06-10T02:53:31;22.70;81.50
20977;DHT22;10647;51.016;3.720;2023-06-10T02:56:05;22.70;81.70
20977;DHT22;10647;51.016;3.720;2023-06-10T02:58:32;22.60;81.90
20977;DHT22;10647;51.016;3.720;2023-06-10T03:01:00;22.60;82.30
20977;DHT22;10647;51.016;3.720;2023-06-10T03:03:28;22.50;82.50
20977;DHT22;10647;51.016;3.720;2023-06-10T03:05:57;22.50;82.80
20977;DHT22;10647;51.016;3.720;2023-06-10T03:08:25;22.50;83.70
20977;DHT22;10647;51.016;3.720;2023-06-10T03:10:52;22.50;83.10
20977;DHT22;10647;51.016;3.720;2023-06-10T03:13:20;22.40;83.20
20977;DHT22;10647;51.016;3.720;2023-06-10T03:15:48;22.40;83.40
20977;DHT22;10647;51.016;3.720;2023-06-10T03:18:25;22.40;83.60
20977;DHT22;10647;51.016;3.720;2023-06-10T03:20:59;22.40;83.80
20977;DHT22;10647;51.016;3.720;2023-06-10T03:23:27;22.40;84.00
20977;DHT22;10647;51.016;3.720;2023-06-10T03:26:09;22.30;84.30
20977;DHT22;10647;51.016;3.720;2023-06-10T03:28:38;22.30;84.60
20977;DHT22;10647;51.016;3.720;2023-06-10T03:31:08;22.30;84.90
20977;DHT22;10647;51.016;3.720;2023-06-10T03:33:36;22.20;85.30
20977;DHT22;10647;51.016;3.720;2023-06-10T03:36:10;22.20;85.50
20977;DHT22;10647;51.016;3.720;2023-06-10T03:38:37;22.20;85.70
20977;DHT22;10647;51.016;3.720;2023-06-10T03:41:05;22.20;85.90
20977;DHT22;10647;51.016;3.720;2023-06-10T03:43:32;22.10;86.10
20977;DHT22;10647;51.016;3.720;2023-06-10T03:46:00;22.20;86.30
20977;DHT22;10647;51.016;3.720;2023-06-10T03:48:27;22.10;86.40
20977;DHT22;10647;51.016;3.720;2023-06-10T03:50:56;22.10;86.70
20977;DHT22;10647;51.016;3.720;2023-06-10T03:53:26;22.20;86.80
20977;DHT22;10647;51.016;3.720;2023-06-10T03:55:53;22.10;87.00
20977;DHT22;10647;51.016;3.720;2023-06-10T03:58:22;22.10;87.20
20977;DHT22;10647;51.016;3.720;2023-06-10T04:00:49;22.10;87.30
20977;DHT22;10647;51.016;3.720;2023-06-10T04:03:17;22.20;87.50
20977;DHT22;10647;51.016;3.720;2023-06-10T04:05:46;22.20;87.70
20977;DHT22;10647;51.016;3.720;2023-06-10T04:08:14;22.20;87.90
20977;DHT22;10647;51.016;3.720;2023-06-10T04:10:41;22.20;88.10
20977;DHT22;10647;51.016;3.720;2023-06-10T04:13:09;22.20;88.20
20977;DHT22;10647;51.016;3.720;2023-06-10T04:15:39;22.20;88.30
20977;DHT22;10647;51.016;3.720;2023-06-10T04:18:07;22.20;88.40
20977;DHT22;10647;51.016;3.720;2023-06-10T04:20:34;22.30;88.60
20977;DHT22;10647;51.016;3.720;2023-06-10T04:23:02;22.30;88.70
20977;DHT22;10647;51.016;3.720;2023-06-10T04:25:30;22.30;88.70
20977;DHT22;10647;51.016;3.720;2023-06-10T04:27:57;22.30;88.80
20977;DHT22;10647;51.016;3.720;2023-06-10T04:30:25;22.40;88.90
20977;DHT22;10647;51.016;3.720;2023-06-10T04:32:52;22.40;89.10
20977;DHT22;10647;51.016;3.720;2023-06-10T04:35:20;22.40;89.10
20977;DHT22;10647;51.016;3.720;2023-06-10T04:37:48;22.40;89.10
20977;DHT22;10647;51.016;3.720;2023-06-10T04:40:16;22.50;89.20
20977;DHT22;10647;51.016;3.720;2023-06-10T04:42:44;22.50;89.30
20977;DHT22;10647;51.016;3.720;2023-06-10T04:45:12;22.50;89.30
20977;DHT22;10647;51.016;3.720;2023-06-10T04:47:39;22.50;89.40
20977;DHT22;10647;51.016;3.720;2023-06-10T04:50:07;22.60;89.50
20977;DHT22;10647;51.016;3.720;2023-06-10T04:52:35;22.70;89.70
20977;DHT22;10647;51.016;3.720;2023-06-10T04:55:04;22.70;89.80
20977;DHT22;10647;51.016;3.720;2023-06-10T04:57:34;22.70;89.60
20977;DHT22;10647;51.016;3.720;2023-06-10T05:00:02;22.80;89.80
20977;DHT22;10647;51.016;3.720;2023-06-10T05:02:37;22.80;90.20
20977;DHT22;10647;51.016;3.720;2023-06-10T05:05:06;22.90;90.00
20977;DHT22;10647;51.016;3.720;2023-06-10T05:07:53;22.90;89.90
20977;DHT22;10647;51.016;3.720;2023-06-10T05:10:22;22.90;90.00
20977;DHT22;10647;51.016;3.720;2023-06-10T05:12:55;23.00;90.00
20977;DHT22;10647;51.016;3.720;2023-06-10T05:15:23;23.00;89.90
20977;DHT22;10647;51.016;3.720;2023-06-10T05:17:53;23.10;90.00
20977;DHT22;10647;51.016;3.720;2023-06-10T05:20:20;23.20;90.20
20977;DHT22;10647;51.016;3.720;2023-06-10T05:22:48;23.20;90.00
20977;DHT22;10647;51.016;3.720;2023-06-10T05:25:15;23.30;89.90
20977;DHT22;10647;51.016;3.720;2023-06-10T05:27:45;23.40;89.80
20977;DHT22;10647;51.016;3.720;2023-06-10T05:30:13;23.50;89.80
20977;DHT22;10647;51.016;3.720;2023-06-10T05:32:40;23.50;89.30
20977;DHT22;10647;51.016;3.720;2023-06-10T05:35:08;23.60;89.10
20977;DHT22;10647;51.016;3.720;2023-06-10T05:37:36;23.70;88.60
20977;DHT22;10647;51.016;3.720;2023-06-10T05:40:05;23.80;88.50
20977;DHT22;10647;51.016;3.720;2023-06-10T05:42:32;23.80;88.20
20977;DHT22;10647;51.016;3.720;2023-06-10T05:45:06;23.90;88.20
20977;DHT22;10647;51.016;3.720;2023-06-10T05:47:34;23.90;88.10
20977;DHT22;10647;51.016;3.720;2023-06-10T05:50:01;24.00;87.70
20977;DHT22;10647;51.016;3.720;2023-06-10T05:52:29;24.00;87.30
20977;DHT22;10647;51.016;3.720;2023-06-10T05:54:56;24.10;87.40
20977;DHT22;10647;51.016;3.720;2023-06-10T05:57:26;24.20;87.20
20977;DHT22;10647;51.016;3.720;2023-06-10T05:59:53;24.30;87.20
20977;DHT22;10647;51.016;3.720;2023-06-10T06:02:26;24.40;86.50
20977;DHT22;10647;51.016;3.720;2023-06-10T06:04:54;24.40;86.30
20977;DHT22;10647;51.016;3.720;2023-06-10T06:07:22;24.50;86.30
20977;DHT22;10647;51.016;3.720;2023-06-10T06:09:52;24.60;86.20
20977;DHT22;10647;51.016;3.720;2023-06-10T06:12:21;24.60;86.10
20977;DHT22;10647;51.016;3.720;2023-06-10T06:14:51;24.70;85.80
20977;DHT22;10647;51.016;3.720;2023-06-10T06:17:18;24.70;85.20
20977;DHT22;10647;51.016;3.720;2023-06-10T06:19:46;24.80;85.30
20977;DHT22;10647;51.016;3.720;2023-06-10T06:22:14;24.90;85.30
20977;DHT22;10647;51.016;3.720;2023-06-10T06:24:42;25.00;84.90
20977;DHT22;10647;51.016;3.720;2023-06-10T06:27:10;25.00;84.70
20977;DHT22;10647;51.016;3.720;2023-06-10T06:29:37;25.10;84.50
20977;DHT22;10647;51.016;3.720;2023-06-10T06:32:05;25.20;84.30
20977;DHT22;10647;51.016;3.720;2023-06-10T06:34:33;25.20;84.40
20977;DHT22;10647;51.016;3.720;2023-06-10T06:37:00;25.30;84.10
20977;DHT22;10647;51.016;3.720;2023-06-10T06:39:28;25.30;83.90
20977;DHT22;10647;51.016;3.720;2023-06-10T06:41:55;25.40;83.20
20977;DHT22;10647;51.016;3.720;2023-06-10T06:44:23;25.40;83.10
20977;DHT22;10647;51.016;3.720;2023-06-10T06:46:53;25.60;82.60
20977;DHT22;10647;51.016;3.720;2023-06-10T06:49:21;25.70;82.60
20977;DHT22;10647;51.016;3.720;2023-06-10T06:51:48;25.70;81.70
20977;DHT22;10647;51.016;3.720;2023-06-10T06:54:17;25.80;81.80
20977;DHT22;10647;51.016;3.720;2023-06-10T06:56:44;25.90;81.40
20977;DHT22;10647;51.016;3.720;2023-06-10T06:59:12;25.90;81.40
20977;DHT22;10647;51.016;3.720;2023-06-10T07:01:40;26.00;81.30
20977;DHT22;10647;51.016;3.720;2023-06-10T07:04:08;26.00;81.00
20977;DHT22;10647;51.016;3.720;2023-06-10T07:06:35;26.00;81.00
20977;DHT22;10647;51.016;3.720;2023-06-10T07:09:04;26.10;81.00
20977;DHT22;10647;51.016;3.720;2023-06-10T07:11:33;26.10;80.90
20977;DHT22;10647;51.016;3.720;2023-06-10T07:14:00;26.20;80.70
20977;DHT22;10647;51.016;3.720;2023-06-10T07:16:28;26.30;80.50
20977;DHT22;10647;51.016;3.720;2023-06-10T07:18:55;26.40;80.20
20977;DHT22;10647;51.016;3.720;2023-06-10T07:21:24;26.50;79.90
20977;DHT22;10647;51.016;3.720;2023-06-10T07:23:53;26.50;79.70
20977;DHT22;10647;51.016;3.720;2023-06-10T07:26:23;26.60;79.60
20977;DHT22;10647;51.016;3.720;2023-06-10T07:28:50;26.70;79.50
20977;DHT22;10647;51.016;3.720;2023-06-10T07:31:18;26.80;79.50
20977;DHT22;10647;51.016;3.720;2023-06-10T07:33:46;26.90;79.40
20977;DHT22;10647;51.016;3.720;2023-06-10T07:36:15;27.00;79.00
20977;DHT22;10647;51.016;3.720;2023-06-10T07:38:42;27.00;79.00
20977;DHT22;10647;51.016;3.720;2023-06-10T07:41:10;27.10;79.20
20977;DHT22;10647;51.016;3.720;2023-06-10T07:43:38;27.20;79.00
20977;DHT22;10647;51.016;3.720;2023-06-10T07:46:06;27.30;78.20
20977;DHT22;10647;51.016;3.720;2023-06-10T07:48:33;27.30;77.60
20977;DHT22;10647;51.016;3.720;2023-06-10T07:51:01;27.50;76.90
20977;DHT22;10647;51.016;3.720;2023-06-10T07:53:28;27.60;76.40
20977;DHT22;10647;51.016;3.720;2023-06-10T07:55:56;27.70;76.10
20977;DHT22;10647;51.016;3.720;2023-06-10T07:58:23;27.70;75.40
20977;DHT22;10647;51.016;3.720;2023-06-10T08:00:51;27.70;75.30
20977;DHT22;10647;51.016;3.720;2023-06-10T08:03:18;27.80;75.30
20977;DHT22;10647;51.016;3.720;2023-06-10T08:05:46;27.90;75.10
20977;DHT22;10647;51.016;3.720;2023-06-10T08:08:14;28.00;75.00
20977;DHT22;10647;51.016;3.720;2023-06-10T08:10:44;28.10;74.20
20977;DHT22;10647;51.016;3.720;2023-06-10T08:13:12;28.10;74.20
20977;DHT22;10647;51.016;3.720;2023-06-10T08:15:39;28.30;73.90
20977;DHT22;10647;51.016;3.720;2023-06-10T08:18:07;28.30;72.70
20977;DHT22;10647;51.016;3.720;2023-06-10T08:20:34;28.40;71.50
20977;DHT22;10647;51.016;3.720;2023-06-10T08:23:03;28.40;72.00
20977;DHT22;10647;51.016;3.720;2023-06-10T08:25:30;28.50;72.00
20977;DHT22;10647;51.016;3.720;2023-06-10T08:27:58;28.60;71.50
20977;DHT22;10647;51.016;3.720;2023-06-10T08:30:25;28.70;71.70
20977;DHT22;10647;51.016;3.720;2023-06-10T08:32:53;28.70;70.50
20977;DHT22;10647;51.016;3.720;2023-06-10T08:35:24;28.80;70.70
20977;DHT22;10647;51.016;3.720;2023-06-10T08:37:51;28.90;70.80
20977;DHT22;10647;51.016;3.720;2023-06-10T08:40:38;28.90;69.50
20977;DHT22;10647;51.016;3.720;2023-06-10T08:43:07;28.90;69.80
20977;DHT22;10647;51.016;3.720;2023-06-10T08:45:36;29.10;69.50
20977;DHT22;10647;51.016;3.720;2023-06-10T08:48:04;29.10;69.10
20977;DHT22;10647;51.016;3.720;2023-06-10T08:50:37;29.20;68.90
20977;DHT22;10647;51.016;3.720;2023-06-10T08:53:06;29.30;69.60
20977;DHT22;10647;51.016;3.720;2023-06-10T08:55:36;29.40;69.60
20977;DHT22;10647;51.016;3.720;2023-06-10T08:58:05;29.50;69.10
20977;DHT22;10647;51.016;3.720;2023-06-10T09:00:32;29.50;69.10
20977;DHT22;10647;51.016;3.720;2023-06-10T09:03:01;29.70;68.90
20977;DHT22;10647;51.016;3.720;2023-06-10T09:05:35;29.70;67.40
20977;DHT22;10647;51.016;3.720;2023-06-10T09:08:03;29.80;67.40
20977;DHT22;10647;51.016;3.720;2023-06-10T09:10:31;29.90;67.00
20977;DHT22;10647;51.016;3.720;2023-06-10T09:12:59;29.90;66.90
20977;DHT22;10647;51.016;3.720;2023-06-10T09:15:27;30.00;66.80
20977;DHT22;10647;51.016;3.720;2023-06-10T09:17:55;30.10;66.70
20977;DHT22;10647;51.016;3.720;2023-06-10T09:20:23;30.20;66.70
20977;DHT22;10647;51.016;3.720;2023-06-10T09:22:51;30.30;66.70
20977;DHT22;10647;51.016;3.720;2023-06-10T09:25:18;30.40;65.30
20977;DHT22;10647;51.016;3.720;2023-06-10T09:27:52;30.40;65.10
20977;DHT22;10647;51.016;3.720;2023-06-10T09:30:30;30.60;65.40
20977;DHT22;10647;51.016;3.720;2023-06-10T09:33:09;30.60;64.50
20977;DHT22;10647;51.016;3.720;2023-06-10T09:35:30;30.70;64.60
20977;DHT22;10647;51.016;3.720;2023-06-10T09:37:59;30.70;64.70
20977;DHT22;10647;51.016;3.720;2023-06-10T09:40:27;30.80;65.10
20977;DHT22;10647;51.016;3.720;2023-06-10T09:42:57;30.80;64.40
20977;DHT22;10647;51.016;3.720;2023-06-10T09:45:30;30.90;64.60
20977;DHT22;10647;51.016;3.720;2023-06-10T09:47:58;31.00;64.40
20977;DHT22;10647;51.016;3.720;2023-06-10T09:50:25;31.10;64.10
20977;DHT22;10647;51.016;3.720;2023-06-10T09:52:53;31.20;62.80
20977;DHT22;10647;51.016;3.720;2023-06-10T09:55:20;31.30;63.20
20977;DHT22;10647;51.016;3.720;2023-06-10T09:57:53;31.30;62.30
20977;DHT22;10647;51.016;3.720;2023-06-10T10:00:22;31.40;62.70
20977;DHT22;10647;51.016;3.720;2023-06-10T10:02:52;31.50;61.50
20977;DHT22;10647;51.016;3.720;2023-06-10T10:05:22;31.50;61.10
20977;DHT22;10647;51.016;3.720;2023-06-10T10:07:50;31.50;60.30
20977;DHT22;10647;51.016;3.720;2023-06-10T10:10:20;31.60;60.50
20977;DHT22;10647;51.016;3.720;2023-06-10T10:12:50;31.70;60.00
20977;DHT22;10647;51.016;3.720;2023-06-10T10:15:18;31.90;59.90
20977;DHT22;10647;51.016;3.720;2023-06-10T10:17:58;31.90;59.50
20977;DHT22;10647;51.016;3.720;2023-06-10T10:20:30;31.90;59.70
20977;DHT22;10647;51.016;3.720;2023-06-10T10:22:59;31.90;59.60
20977;DHT22;10647;51.016;3.720;2023-06-10T10:25:37;32.00;59.70
20977;DHT22;10647;51.016;3.720;2023-06-10T10:28:09;32.10;59.10
20977;DHT22;10647;51.016;3.720;2023-06-10T10:30:52;32.10;59.00
20977;DHT22;10647;51.016;3.720;2023-06-10T10:33:27;32.20;58.30
20977;DHT22;10647;51.016;3.720;2023-06-10T10:35:50;32.30;57.30
20977;DHT22;10647;51.016;3.720;2023-06-10T10:38:19;32.50;56.80
20977;DHT22;10647;51.016;3.720;2023-06-10T10:40:47;32.50;56.00
20977;DHT22;10647;51.016;3.720;2023-06-10T10:43:16;32.60;56.80
20977;DHT22;10647;51.016;3.720;2023-06-10T10:45:46;32.70;57.10
20977;DHT22;10647;51.016;3.720;2023-06-10T10:48:15;32.60;57.40
20977;DHT22;10647;51.016;3.720;2023-06-10T10:50:42;32.60;57.80
20977;DHT22;10647;51.016;3.720;2023-06-10T10:53:11;32.80;57.30
20977;DHT22;10647;51.016;3.720;2023-06-10T10:55:40;32.80;55.50
20977;DHT22;10647;51.016;3.720;2023-06-10T10:58:08;33.00;55.70
20977;DHT22;10647;51.016;3.720;2023-06-10T11:00:49;33.10;55.40
20977;DHT22;10647;51.016;3.720;2023-06-10T11:03:17;33.20;54.70
20977;DHT22;10647;51.016;3.720;2023-06-10T11:05:48;33.20;53.60
20977;DHT22;10647;51.016;3.720;2023-06-10T11:11:19;33.30;52.80
20977;DHT22;10647;51.016;3.720;2023-06-10T11:16:41;33.50;52.30
20977;DHT22;10647;51.016;3.720;2023-06-10T11:19:09;33.70;52.70
20977;DHT22;10647;51.016;3.720;2023-06-10T11:21:59;33.70;52.70
20977;DHT22;10647;51.016;3.720;2023-06-10T11:24:29;33.70;52.70
20977;DHT22;10647;51.016;3.720;2023-06-10T11:27:40;33.80;52.50
20977;DHT22;10647;51.016;3.720;2023-06-10T11:29:30;34.00;52.10
20977;DHT22;10647;51.016;3.720;2023-06-10T11:31:57;34.00;51.80
20977;DHT22;10647;51.016;3.720;2023-06-10T11:34:25;34.10;51.30
20977;DHT22;10647;51.016;3.720;2023-06-10T11:36:54;34.20;50.60
20977;DHT22;10647;51.016;3.720;2023-06-10T11:39:23;34.30;50.40
20977;DHT22;10647;51.016;3.720;2023-06-10T11:41:52;34.20;50.10
20977;DHT22;10647;51.016;3.720;2023-06-10T11:44:25;34.30;50.10
20977;DHT22;10647;51.016;3.720;2023-06-10T11:46:52;34.40;50.10
20977;DHT22;10647;51.016;3.720;2023-06-10T11:49:20;34.50;49.60
20977;DHT22;10647;51.016;3.720;2023-06-10T11:51:48;34.70;49.50
20977;DHT22;10647;51.016;3.720;2023-06-10T11:54:17;34.80;49.20
20977;DHT22;10647;51.016;3.720;2023-06-10T11:56:45;34.80;48.60
20977;DHT22;10647;51.016;3.720;2023-06-10T11:59:13;34.90;49.00
20977;DHT22;10647;51.016;3.720;2023-06-10T12:01:45;34.90;47.60
20977;DHT22;10647;51.016;3.720;2023-06-10T12:04:14;35.10;47.70
20977;DHT22;10647;51.016;3.720;2023-06-10T12:06:49;35.40;47.50
20977;DHT22;10647;51.016;3.720;2023-06-10T12:09:22;35.50;47.50
20977;DHT22;10647;51.016;3.720;2023-06-10T12:11:52;35.60;47.80
20977;DHT22;10647;51.016;3.720;2023-06-10T12:14:57;35.80;47.60
20977;DHT22;10647;51.016;3.720;2023-06-10T12:20:05;35.70;47.90
20977;DHT22;10647;51.016;3.720;2023-06-10T12:22:40;35.90;47.50
20977;DHT22;10647;51.016;3.720;2023-06-10T12:25:09;36.10;47.50
20977;DHT22;10647;51.016;3.720;2023-06-10T12:27:38;36.30;46.20
20977;DHT22;10647;51.016;3.720;2023-06-10T12:30:17;36.40;44.80
20977;DHT22;10647;51.016;3.720;2023-06-10T12:32:44;36.40;44.50
20977;DHT22;10647;51.016;3.720;2023-06-10T12:35:17;36.20;44.90
20977;DHT22;10647;51.016;3.720;2023-06-10T12:37:42;36.10;45.30
20977;DHT22;10647;51.016;3.720;2023-06-10T12:40:10;36.20;45.20
20977;DHT22;10647;51.016;3.720;2023-06-10T12:42:39;36.40;45.30
20977;DHT22;10647;51.016;3.720;2023-06-10T12:45:08;36.50;44.60
20977;DHT22;10647;51.016;3.720;2023-06-10T12:47:37;36.80;44.20
20977;DHT22;10647;51.016;3.720;2023-06-10T12:50:06;37.00;44.10
20977;DHT22;10647;51.016;3.720;2023-06-10T12:52:34;36.90;43.70
20977;DHT22;10647;51.016;3.720;2023-06-10T12:55:01;37.00;43.70
20977;DHT22;10647;51.016;3.720;2023-06-10T12:57:30;37.20;43.70
20977;DHT22;10647;51.016;3.720;2023-06-10T12:59:58;37.30;42.60
20977;DHT22;10647;51.016;3.720;2023-06-10T13:02:27;37.40;42.80
20977;DHT22;10647;51.016;3.720;2023-06-10T13:04:54;38.50;42.70
20977;DHT22;10647;51.016;3.720;2023-06-10T13:07:22;43.20;39.10
20977;DHT22;10647;51.016;3.720;2023-06-10T13:09:52;46.50;36.60
20977;DHT22;10647;51.016;3.720;2023-06-10T13:12:19;48.40;34.50
20977;DHT22;10647;51.016;3.720;2023-06-10T13:14:47;50.20;31.70
20977;DHT22;10647;51.016;3.720;2023-06-10T13:17:16;51.70;30.40
20977;DHT22;10647;51.016;3.720;2023-06-10T13:19:44;52.60;29.50
20977;DHT22;10647;51.016;3.720;2023-06-10T13:22:12;53.20;28.50
20977;DHT22;10647;51.016;3.720;2023-06-10T13:24:40;53.90;28.10
20977;DHT22;10647;51.016;3.720;2023-06-10T13:27:09;54.70;27.50
20977;DHT22;10647;51.016;3.720;2023-06-10T13:29:37;55.70;27.10
20977;DHT22;10647;51.016;3.720;2023-06-10T13:32:05;56.30;26.50
20977;DHT22;10647;51.016;3.720;2023-06-10T13:34:33;56.70;26.20
20977;DHT22;10647;51.016;3.720;2023-06-10T13:37:00;56.80;26.40
20977;DHT22;10647;51.016;3.720;2023-06-10T13:39:29;56.90;25.40
20977;DHT22;10647;51.016;3.720;2023-06-10T13:41:59;57.00;24.90
20977;DHT22;10647;51.016;3.720;2023-06-10T13:44:27;57.20;24.90
20977;DHT22;10647;51.016;3.720;2023-06-10T13:46:56;57.50;24.70
20977;DHT22;10647;51.016;3.720;2023-06-10T13:49:24;56.40;24.90
20977;DHT22;10647;51.016;3.720;2023-06-10T13:51:52;57.30;24.90
20977;DHT22;10647;51.016;3.720;2023-06-10T13:54:19;57.60;24.40
20977;DHT22;10647;51.016;3.720;2023-06-10T13:56:47;57.80;24.60
20977;DHT22;10647;51.016;3.720;2023-06-10T13:59:15;57.40;24.30
20977;DHT22;10647;51.016;3.720;2023-06-10T14:01:43;57.50;24.40
20977;DHT22;10647;51.016;3.720;2023-06-10T14:04:11;57.60;24.50
20977;DHT22;10647;51.016;3.720;2023-06-10T14:06:38;57.50;23.90
20977;DHT22;10647;51.016;3.720;2023-06-10T14:09:06;55.00;24.30
20977;DHT22;10647;51.016;3.720;2023-06-10T14:11:36;54.80;24.70
20977;DHT22;10647;51.016;3.720;2023-06-10T14:14:04;52.50;25.30
20977;DHT22;10647;51.016;3.720;2023-06-10T14:16:32;50.80;26.50
20977;DHT22;10647;51.016;3.720;2023-06-10T14:19:00;52.70;26.10
20977;DHT22;10647;51.016;3.720;2023-06-10T14:21:28;54.00;25.40
20977;DHT22;10647;51.016;3.720;2023-06-10T14:23:56;54.90;25.10
20977;DHT22;10647;51.016;3.720;2023-06-10T14:26:23;54.50;25.30
20977;DHT22;10647;51.016;3.720;2023-06-10T14:28:52;55.60;24.80
20977;DHT22;10647;51.016;3.720;2023-06-10T14:31:20;56.60;24.40
20977;DHT22;10647;51.016;3.720;2023-06-10T14:33:47;57.30;24.00
20977;DHT22;10647;51.016;3.720;2023-06-10T14:36:15;57.50;23.50
20977;DHT22;10647;51.016;3.720;2023-06-10T14:38:43;57.90;23.50
20977;DHT22;10647;51.016;3.720;2023-06-10T14:41:14;58.20;23.20
20977;DHT22;10647;51.016;3.720;2023-06-10T14:43:42;58.30;23.20
20977;DHT22;10647;51.016;3.720;2023-06-10T14:46:09;58.40;23.30
20977;DHT22;10647;51.016;3.720;2023-06-10T14:48:38;55.40;23.50
20977;DHT22;10647;51.016;3.720;2023-06-10T14:51:05;52.00;24.90
20977;DHT22;10647;51.016;3.720;2023-06-10T14:53:34;52.80;25.40
20977;DHT22;10647;51.016;3.720;2023-06-10T14:56:01;50.60;25.50
20977;DHT22;10647;51.016;3.720;2023-06-10T14:58:29;47.80;26.90
20977;DHT22;10647;51.016;3.720;2023-06-10T15:00:57;46.10;28.10
20977;DHT22;10647;51.016;3.720;2023-06-10T15:03:24;49.30;27.80
20977;DHT22;10647;51.016;3.720;2023-06-10T15:05:52;51.80;26.40
20977;DHT22;10647;51.016;3.720;2023-06-10T15:08:19;53.30;25.30
20977;DHT22;10647;51.016;3.720;2023-06-10T15:10:47;53.80;25.00
20977;DHT22;10647;51.016;3.720;2023-06-10T15:13:16;54.50;24.80
20977;DHT22;10647;51.016;3.720;2023-06-10T15:15:43;54.90;24.50
20977;DHT22;10647;51.016;3.720;2023-06-10T15:18:11;55.40;24.30
20977;DHT22;10647;51.016;3.720;2023-06-10T15:20:39;56.00;24.20
20977;DHT22;10647;51.016;3.720;2023-06-10T15:23:06;56.50;23.80
20977;DHT22;10647;51.016;3.720;2023-06-10T15:25:34;56.80;23.70
20977;DHT22;10647;51.016;3.720;2023-06-10T15:28:02;56.70;23.60
20977;DHT22;10647;51.016;3.720;2023-06-10T15:30:30;56.70;23.50
20977;DHT22;10647;51.016;3.720;2023-06-10T15:32:57;57.00;23.30
20977;DHT22;10647;51.016;3.720;2023-06-10T15:35:25;56.90;23.50
20977;DHT22;10647;51.016;3.720;2023-06-10T15:37:53;57.00;23.20
20977;DHT22;10647;51.016;3.720;2023-06-10T15:40:20;56.80;23.10
20977;DHT22;10647;51.016;3.720;2023-06-10T15:42:48;56.80;23.20
20977;DHT22;10647;51.016;3.720;2023-06-10T15:45:16;56.40;23.10
20977;DHT22;10647;51.016;3.720;2023-06-10T15:47:49;55.40;23.40
20977;DHT22;10647;51.016;3.720;2023-06-10T15:50:16;53.40;24.00
20977;DHT22;10647;51.016;3.720;2023-06-10T15:52:44;51.30;24.90
20977;DHT22;10647;51.016;3.720;2023-06-10T15:55:11;49.80;25.50
20977;DHT22;10647;51.016;3.720;2023-06-10T15:57:39;48.10;26.40
20977;DHT22;10647;51.016;3.720;2023-06-10T16:00:07;46.90;27.20
20977;DHT22;10647;51.016;3.720;2023-06-10T16:02:35;45.60;27.90